sensor_id;sensor_type;location;lat;lon;timestamp;pressure;altitude;pressure_sealevel;temperature;humidity
4830;BME280;2429;52.586;14.322;2024-01-11T20:33:00;102912.81;;;0.46;100.00
4830;BME280;2429;52.586;14.322;2024-01-11T20:38:06;102917.31;;;0.55;100.00
4830;BME280;2429;52.586;14.322;2024-01-11T20:43:10;102908.56;;;0.48;100.00
4830;BME280;2429;52.586;14.322;2024-01-11T20:48:16;102910.47;;;0.57;100.00
4830;BME280;2429;52.586;14.322;2024-01-11T20:53:22;102917.25;;;0.51;100.00
4830;BME280;2429;52.586;14.322;2024-01-11T20:58:25;102913.19;;;0.61;100.00
4830;BME280;2429;52.586;14.322;2024-01-11T21:03:31;102910.75;;;0.69;100.00
4830;BME280;2429;52.586;14.322;2024-01-11T21:08:35;102920.16;;;0.67;100.00
4830;BME280;2429;52.586;14.322;2024-01-11T21:13:39;102915.38;;;0.46;100.00
4830;BME280;2429;52.586;14.322;2024-01-11T21:18:44;102918.66;;;0.39;100.00
4830;BME280;2429;52.586;14.322;2024-01-11T21:23:51;102924.00;;;0.46;100.00
4830;BME280;2429;52.586;14.322;2024-01-11T21:28:59;102921.47;;;0.48;100.00
4830;BME280;2429;52.586;14.322;2024-01-11T21:34:04;102927.56;;;0.51;100.00
4830;BME280;2429;52.586;14.322;2024-01-11T21:39:08;102922.50;;;0.56;100.00
4830;BME280;2429;52.586;14.322;2024-01-11T21:44:11;102924.16;;;0.52;100.00
4830;BME280;2429;52.586;14.322;2024-01-11T21:49:17;102917.78;;;0.38;100.00
4830;BME280;2429;52.586;14.322;2024-01-11T21:54:21;102922.22;;;0.44;100.00
4830;BME280;2429;52.586;14.322;2024-01-11T21:59:25;102930.97;;;0.50;100.00
4830;BME280;2429;52.586;14.322;2024-01-11T22:04:30;102929.00;;;0.40;100.00
4830;BME280;2429;52.586;14.322;2024-01-11T22:09:34;102939.56;;;0.49;100.00
4830;BME280;2429;52.586;14.322;2024-01-11T22:14:37;102931.53;;;0.39;100.00
4830;BME280;2429;52.586;14.322;2024-01-11T22:19:43;102933.19;;;0.35;100.00
4830;BME280;2429;52.586;14.322;2024-01-11T22:24:47;102934.13;;;0.39;100.00
4830;BME280;2429;52.586;14.322;2024-01-11T22:29:52;102938.41;;;0.38;100.00
4830;BME280;2429;52.586;14.322;2024-01-11T22:34:57;102946.91;;;0.34;100.00
4830;BME280;2429;52.586;14.322;2024-01-11T22:40:02;102950.63;;;0.45;100.00
4830;BME280;2429;52.586;14.322;2024-01-11T22:45:07;102941.97;;;0.43;100.00
4830;BME280;2429;52.586;14.322;2024-01-11T22:50:13;102935.72;;;0.33;100.00
4830;BME280;2429;52.586;14.322;2024-01-11T22:55:16;102940.63;;;0.23;100.00
4830;BME280;2429;52.586;14.322;2024-01-11T23:00:21;102929.47;;;0.24;100.00
4830;BME280;2429;52.586;14.322;2024-01-11T23:05:27;102932.63;;;0.12;100.00
4830;BME280;2429;52.586;14.322;2024-01-11T23:10:31;102930.28;;;0.21;100.00
4830;BME280;2429;52.586;14.322;2024-01-11T23:15:37;102937.25;;;0.25;100.00
4830;BME280;2429;52.586;14.322;2024-01-11T23:20:43;102946.81;;;-0.06;100.00
4830;BME280;2429;52.586;14.322;2024-01-11T23:25:47;102952.03;;;-0.03;100.00
4830;BME280;2429;52.586;14.322;2024-01-11T23:30:50;102955.56;;;0.01;100.00
4830;BME280;2429;52.586;14.322;2024-01-11T23:35:56;102948.72;;;0.02;100.00
4830;BME280;2429;52.586;14.322;2024-01-11T23:40:59;102940.69;;;-0.09;100.00
4830;BME280;2429;52.586;14.322;2024-01-11T23:46:03;102949.28;;;-0.10;100.00
4830;BME280;2429;52.586;14.322;2024-01-11T23:51:08;102939.47;;;-0.24;100.00
4830;BME280;2429;52.586;14.322;2024-01-11T23:56:12;102947.19;;;-0.24;100.00
